createdAt,value
2022-12-05T00:00:07.014Z,69.80
2022-12-05T00:02:36.416Z,69.80
2022-12-05T00:05:04.487Z,69.80
2022-12-05T00:07:32.199Z,69.90
2022-12-05T00:10:00.129Z,70.00
2022-12-05T00:12:28.433Z,70.00
2022-12-05T00:14:55.935Z,70.00
2022-12-05T00:17:23.567Z,70.10
2022-12-05T00:19:56.745Z,70.10
2022-12-05T00:22:24.726Z,70.20
2022-12-05T00:24:52.528Z,70.20
2022-12-05T00:27:20.224Z,70.20
2022-12-05T00:29:48.169Z,70.20
2022-12-05T00:32:15.885Z,70.20
2022-12-05T00:34:43.567Z,70.30
2022-12-05T00:37:12.710Z,70.20
2022-12-05T00:39:40.291Z,70.30
2022-12-05T00:42:08.007Z,70.30
2022-12-05T00:44:35.728Z,70.30
2022-12-05T00:47:03.392Z,70.50
2022-12-05T00:49:31.525Z,70.40
2022-12-05T00:51:59.057Z,70.40
2022-12-05T00:54:28.323Z,70.30
2022-12-05T00:56:55.946Z,70.30
2022-12-05T00:59:23.594Z,70.40
2022-12-05T01:01:51.526Z,70.40
2022-12-05T01:04:20.167Z,70.50
2022-12-05T01:06:47.887Z,70.40
2022-12-05T01:09:17.339Z,70.40
2022-12-05T01:11:46.602Z,70.40
2022-12-05T01:14:14.936Z,70.40
2022-12-05T01:16:44.043Z,70.40
2022-12-05T01:19:14.178Z,70.30
2022-12-05T01:21:42.000Z,70.30
2022-12-05T01:24:09.652Z,70.30
2022-12-05T01:26:37.304Z,70.30
2022-12-05T01:29:06.634Z,70.20
2022-12-05T01:31:35.784Z,70.00
2022-12-05T01:34:06.122Z,70.00
2022-12-05T01:36:33.841Z,69.90
2022-12-05T01:39:01.525Z,69.80
2022-12-05T01:41:30.693Z,69.70
2022-12-05T01:44:01.379Z,69.60
2022-12-05T01:46:32.103Z,69.50
2022-12-05T01:49:03.811Z,69.50
2022-12-05T01:51:31.776Z,69.40
2022-12-05T01:53:59.561Z,69.40
2022-12-05T01:56:27.098Z,69.40
2022-12-05T01:58:54.889Z,69.30
2022-12-05T02:01:22.647Z,69.30
2022-12-05T02:03:53.068Z,69.30
2022-12-05T02:06:20.963Z,69.20
2022-12-05T02:08:48.694Z,69.20
2022-12-05T02:11:16.428Z,69.20
2022-12-05T02:14:05.508Z,69.20
2022-12-05T02:16:42.745Z,69.10
2022-12-05T02:19:42.328Z,69.20
2022-12-05T02:22:55.035Z,69.10
2022-12-05T02:25:35.301Z,69.10
2022-12-05T02:28:36.898Z,69.30
2022-12-05T02:31:07.879Z,69.10
2022-12-05T02:33:36.512Z,69.40
2022-12-05T02:36:05.752Z,69.40
2022-12-05T02:38:37.042Z,69.30
2022-12-05T02:41:11.124Z,69.30
2022-12-05T02:43:39.049Z,69.30
2022-12-05T02:46:10.665Z,69.20
2022-12-05T02:48:38.406Z,69.50
2022-12-05T02:51:06.416Z,69.40
2022-12-05T02:53:34.121Z,69.30
2022-12-05T02:56:01.727Z,69.30
2022-12-05T02:58:33.205Z,69.30
2022-12-05T03:01:01.055Z,69.30
2022-12-05T03:03:30.154Z,69.30
2022-12-05T03:06:01.607Z,69.40
2022-12-05T03:08:32.126Z,69.40
2022-12-05T03:10:59.615Z,69.50
2022-12-05T03:13:28.220Z,69.60
2022-12-05T03:15:56.947Z,69.60
2022-12-05T03:18:25.398Z,69.70
2022-12-05T03:20:57.607Z,69.70
2022-12-05T03:23:26.675Z,69.70
2022-12-05T03:25:58.541Z,69.80
2022-12-05T03:28:30.293Z,69.80
2022-12-05T03:30:58.661Z,69.90
2022-12-05T03:33:28.200Z,70.00
2022-12-05T03:36:02.168Z,69.90
2022-12-05T03:38:31.341Z,69.80
2022-12-05T03:41:07.948Z,69.90
2022-12-05T03:43:38.367Z,70.10
2022-12-05T03:46:07.457Z,70.10
2022-12-05T03:48:36.346Z,70.10
2022-12-05T03:51:06.669Z,70.10
2022-12-05T03:53:36.298Z,70.20
2022-12-05T03:56:06.275Z,70.20
2022-12-05T03:58:36.624Z,70.30
2022-12-05T04:01:04.862Z,70.40
2022-12-05T04:03:36.678Z,70.50
2022-12-05T04:06:06.786Z,70.60
2022-12-05T04:08:37.168Z,70.70
2022-12-05T04:11:06.950Z,70.80
2022-12-05T04:13:37.331Z,70.90
2022-12-05T04:16:06.163Z,70.90
2022-12-05T04:18:33.910Z,70.90
2022-12-05T04:21:01.769Z,70.90
2022-12-05T04:23:30.958Z,70.90
2022-12-05T04:26:02.205Z,70.90
2022-12-05T04:28:32.656Z,71.00
2022-12-05T04:31:04.386Z,71.10
2022-12-05T04:33:36.548Z,71.10
2022-12-05T04:36:08.056Z,71.10
2022-12-05T04:38:40.116Z,71.10
2022-12-05T04:41:09.643Z,71.10
2022-12-05T04:43:41.300Z,71.10
2022-12-05T04:46:10.397Z,71.20
2022-12-05T04:48:39.718Z,71.20
2022-12-05T04:51:08.393Z,71.30
2022-12-05T04:53:37.713Z,71.30
2022-12-05T04:56:05.622Z,71.40
2022-12-05T04:58:33.377Z,71.40
2022-12-05T05:01:04.110Z,71.50
2022-12-05T05:03:34.646Z,71.50
2022-12-05T05:06:02.329Z,71.50
2022-12-05T05:08:30.299Z,71.60
2022-12-05T05:11:11.769Z,71.60
2022-12-05T05:13:39.506Z,71.60
2022-12-05T05:16:07.850Z,71.80
2022-12-05T05:18:35.730Z,72.20
2022-12-05T05:21:03.516Z,71.80
2022-12-05T05:23:31.320Z,71.80
2022-12-05T05:25:58.932Z,71.80
2022-12-05T05:28:28.092Z,71.80
2022-12-05T05:30:55.877Z,71.90
2022-12-05T05:33:23.683Z,71.90
2022-12-05T05:35:51.284Z,71.90
2022-12-05T05:38:18.921Z,71.80
2022-12-05T05:40:46.754Z,71.80
2022-12-05T05:43:14.559Z,71.80
2022-12-05T05:45:43.713Z,71.70
2022-12-05T05:48:11.415Z,71.60
2022-12-05T05:50:39.245Z,71.60
2022-12-05T05:53:06.837Z,71.60
2022-12-05T05:55:34.576Z,71.50
2022-12-05T05:58:02.326Z,71.40
2022-12-05T06:00:29.868Z,71.30
2022-12-05T06:02:59.239Z,71.30
2022-12-05T06:05:27.036Z,71.30
2022-12-05T06:07:54.672Z,71.30
2022-12-05T06:10:22.425Z,71.30
2022-12-05T06:12:49.950Z,71.20
2022-12-05T06:15:17.728Z,71.20
2022-12-05T06:17:45.385Z,71.20
2022-12-05T06:20:14.540Z,71.30
2022-12-05T06:22:41.989Z,71.20
2022-12-05T06:25:09.892Z,71.20
2022-12-05T06:27:37.628Z,71.20
2022-12-05T06:30:07.126Z,71.40
2022-12-05T06:32:34.977Z,71.30
2022-12-05T06:35:02.586Z,71.40
2022-12-05T06:37:31.606Z,71.40
2022-12-05T06:39:59.521Z,72.30
2022-12-05T06:42:27.481Z,71.50
2022-12-05T06:44:55.196Z,71.60
2022-12-05T06:47:22.774Z,71.60
2022-12-05T06:49:50.524Z,71.70
2022-12-05T06:52:18.225Z,71.80
2022-12-05T06:54:47.390Z,71.80
2022-12-05T06:57:15.010Z,71.80
2022-12-05T06:59:42.641Z,71.80
2022-12-05T07:02:11.799Z,71.80
2022-12-05T07:04:39.598Z,71.70
2022-12-05T07:07:07.672Z,71.70
2022-12-05T07:09:35.396Z,71.70
2022-12-05T07:12:04.805Z,71.70
2022-12-05T07:14:47.164Z,71.60
2022-12-05T07:17:16.947Z,71.80
2022-12-05T07:19:44.541Z,71.70
2022-12-05T07:22:15.741Z,71.80
2022-12-05T07:24:44.030Z,71.80
2022-12-05T07:27:13.280Z,71.60
2022-12-05T07:29:40.999Z,71.60
2022-12-05T07:32:08.776Z,71.70
2022-12-05T07:34:36.918Z,71.70
2022-12-05T07:37:04.455Z,71.70
2022-12-05T07:39:32.159Z,71.80
2022-12-05T07:41:59.642Z,71.70
2022-12-05T07:44:28.750Z,72.60
2022-12-05T07:46:56.386Z,71.80
2022-12-05T07:49:23.951Z,72.00
2022-12-05T07:51:51.694Z,72.00
2022-12-05T07:54:19.222Z,72.00
2022-12-05T07:56:48.137Z,71.90
2022-12-05T07:59:16.069Z,72.00
2022-12-05T08:01:45.502Z,72.00
2022-12-05T08:04:15.550Z,72.00
2022-12-05T08:06:43.722Z,72.00
2022-12-05T08:09:11.436Z,72.10
2022-12-05T08:11:39.040Z,72.00
2022-12-05T08:14:08.312Z,72.10
2022-12-05T08:16:36.133Z,72.20
2022-12-05T08:19:06.623Z,72.30
2022-12-05T08:21:34.460Z,72.30
2022-12-05T08:24:04.290Z,72.40
2022-12-05T08:26:31.983Z,72.50
2022-12-05T08:29:00.371Z,72.60
2022-12-05T08:31:29.250Z,72.60
2022-12-05T08:33:59.018Z,72.60
2022-12-05T08:36:29.481Z,72.70
2022-12-05T08:38:57.421Z,72.60
2022-12-05T08:41:25.437Z,72.60
2022-12-05T08:43:53.214Z,72.60
2022-12-05T08:46:21.004Z,72.60
2022-12-05T08:48:48.619Z,72.60
2022-12-05T08:51:16.352Z,72.50
2022-12-05T08:53:45.535Z,72.50
2022-12-05T08:56:13.301Z,72.40
2022-12-05T08:58:41.427Z,72.40
2022-12-05T09:01:09.862Z,72.40
2022-12-05T09:03:37.801Z,72.40
2022-12-05T09:06:09.612Z,72.50
2022-12-05T09:08:37.384Z,72.50
2022-12-05T09:11:10.281Z,72.50
2022-12-05T09:13:37.949Z,72.50
2022-12-05T09:16:07.284Z,72.50
2022-12-05T09:18:34.932Z,72.50
2022-12-05T09:21:06.874Z,72.40
2022-12-05T09:23:34.638Z,72.40
2022-12-05T09:26:02.303Z,72.40
2022-12-05T09:28:31.568Z,72.20
2022-12-05T09:30:59.533Z,72.20
2022-12-05T09:33:27.366Z,72.20
2022-12-05T09:35:55.084Z,72.20
2022-12-05T09:38:22.885Z,72.30
2022-12-05T09:40:56.337Z,72.40
2022-12-05T09:43:27.668Z,72.40
2022-12-05T09:45:58.843Z,72.50
2022-12-05T09:48:26.559Z,72.50
2022-12-05T09:50:56.724Z,72.50
2022-12-05T09:53:27.114Z,72.60
2022-12-05T09:55:56.920Z,72.70
2022-12-05T09:58:30.441Z,72.70
2022-12-05T10:01:03.931Z,72.70
2022-12-05T10:03:38.045Z,72.80
2022-12-05T10:06:15.640Z,72.90
2022-12-05T10:09:04.243Z,72.90
2022-12-05T10:11:34.781Z,72.90
2022-12-05T10:14:05.882Z,73.00
2022-12-05T10:16:37.265Z,73.00
2022-12-05T10:19:06.679Z,72.90
2022-12-05T10:21:36.736Z,72.80
2022-12-05T10:24:05.867Z,72.70
2022-12-05T10:26:34.823Z,72.70
2022-12-05T10:29:07.426Z,72.60
2022-12-05T10:31:38.100Z,72.50
2022-12-05T10:34:10.897Z,72.50
2022-12-05T10:36:38.485Z,72.50
2022-12-05T10:39:11.274Z,72.50
2022-12-05T10:41:39.475Z,72.40
2022-12-05T10:44:07.245Z,72.50
2022-12-05T10:46:36.641Z,72.40
2022-12-05T10:49:09.230Z,72.40
2022-12-05T10:51:37.853Z,72.40
2022-12-05T10:54:13.265Z,72.40
2022-12-05T10:56:45.045Z,72.30
2022-12-05T10:59:13.803Z,72.20
2022-12-05T11:01:48.139Z,72.30
2022-12-05T11:04:28.116Z,72.20
2022-12-05T11:06:58.796Z,72.10
2022-12-05T11:09:27.970Z,72.10
2022-12-05T11:12:03.466Z,72.10
2022-12-05T11:14:31.176Z,72.10
2022-12-05T11:17:01.212Z,72.00
2022-12-05T11:19:30.780Z,72.10
2022-12-05T11:21:58.648Z,72.10
2022-12-05T11:24:28.467Z,72.10
2022-12-05T11:26:56.522Z,72.10
2022-12-05T11:29:32.217Z,72.10
2022-12-05T11:32:01.511Z,72.00
2022-12-05T11:34:33.399Z,72.10
2022-12-05T11:37:04.982Z,72.20
2022-12-05T11:39:32.733Z,72.20
2022-12-05T11:42:19.014Z,72.30
2022-12-05T11:45:14.716Z,72.40
2022-12-05T11:48:16.445Z,72.50
2022-12-05T11:50:49.347Z,72.70
2022-12-05T11:53:31.072Z,72.80
2022-12-05T11:56:02.715Z,72.90
2022-12-05T11:58:46.861Z,72.80
2022-12-05T12:01:18.698Z,72.80
2022-12-05T12:04:06.507Z,73.00
2022-12-05T12:06:39.086Z,73.00
2022-12-05T12:09:16.673Z,73.00
2022-12-05T12:11:47.350Z,73.00
2022-12-05T12:14:17.872Z,72.90
2022-12-05T12:16:51.173Z,72.80
2022-12-05T12:19:28.877Z,72.60
2022-12-05T12:22:15.366Z,72.60
2022-12-05T12:24:56.818Z,72.50
2022-12-05T12:27:32.446Z,72.60
2022-12-05T12:30:03.785Z,72.60
2022-12-05T12:32:35.319Z,72.70
2022-12-05T12:35:31.338Z,72.60
2022-12-05T12:38:19.950Z,72.50
2022-12-05T12:40:49.734Z,72.60
2022-12-05T12:46:30.497Z,72.60
2022-12-05T12:49:11.389Z,72.60
2022-12-05T12:51:43.933Z,72.50
2022-12-05T12:57:28.907Z,72.60
2022-12-05T13:00:02.914Z,72.70
2022-12-05T13:02:32.313Z,72.70
2022-12-05T13:05:02.135Z,72.90
2022-12-05T13:07:33.349Z,73.00
2022-12-05T13:10:03.376Z,72.90
2022-12-05T13:12:33.133Z,72.70
2022-12-05T13:15:04.675Z,72.60
2022-12-05T13:17:32.806Z,72.60
2022-12-05T13:20:00.449Z,72.50
2022-12-05T13:22:28.374Z,72.40
2022-12-05T13:24:57.725Z,72.30
2022-12-05T13:27:26.557Z,72.30
2022-12-05T13:29:55.319Z,72.20
2022-12-05T13:32:28.236Z,72.20
2022-12-05T13:34:55.632Z,72.20
2022-12-05T13:37:25.220Z,72.20
2022-12-05T13:39:54.925Z,72.30
2022-12-05T13:42:25.514Z,72.30
2022-12-05T13:44:54.357Z,72.20
2022-12-05T13:47:29.462Z,72.30
2022-12-05T13:50:00.986Z,72.20
2022-12-05T13:52:31.437Z,72.30
2022-12-05T13:55:01.293Z,72.30
2022-12-05T13:57:50.046Z,72.30
2022-12-05T14:00:34.237Z,72.20
2022-12-05T14:03:07.230Z,72.30
2022-12-05T14:05:39.971Z,72.50
2022-12-05T14:08:47.117Z,72.50
2022-12-05T14:11:14.920Z,72.50
2022-12-05T14:13:45.287Z,72.60
2022-12-05T14:16:40.264Z,72.60
2022-12-05T14:19:12.421Z,72.50
2022-12-05T14:21:42.021Z,72.80
2022-12-05T14:24:12.514Z,73.00
2022-12-05T14:26:51.892Z,72.90
2022-12-05T14:29:33.428Z,72.70
2022-12-05T14:32:11.055Z,72.60
2022-12-05T14:34:39.077Z,72.70
2022-12-05T14:37:08.361Z,72.60
2022-12-05T14:39:41.219Z,72.60
2022-12-05T14:42:24.305Z,73.20
2022-12-05T14:44:55.053Z,72.30
2022-12-05T14:47:24.309Z,72.30
2022-12-05T14:50:01.791Z,72.30
2022-12-05T14:52:30.742Z,72.10
2022-12-05T14:55:02.717Z,72.20
2022-12-05T14:57:30.503Z,72.10
2022-12-05T15:00:01.570Z,72.20
2022-12-05T15:02:31.911Z,72.20
2022-12-05T15:05:01.019Z,72.20
2022-12-05T15:07:35.341Z,72.30
2022-12-05T15:10:04.116Z,73.10
2022-12-05T15:12:38.220Z,72.50
2022-12-05T15:15:12.598Z,72.50
2022-12-05T15:17:45.664Z,72.70
2022-12-05T15:20:18.127Z,72.80
2022-12-05T15:22:45.869Z,72.80
2022-12-05T15:25:24.849Z,72.70
2022-12-05T15:27:57.194Z,72.50
2022-12-05T15:30:26.786Z,72.60
2022-12-05T15:32:59.272Z,72.50
2022-12-05T15:35:29.275Z,72.50
2022-12-05T15:37:57.722Z,72.40
2022-12-05T15:40:25.542Z,72.30
2022-12-05T15:42:54.262Z,72.30
2022-12-05T15:45:24.104Z,72.30
2022-12-05T15:47:54.746Z,72.30
2022-12-05T15:50:28.990Z,72.30
2022-12-05T15:52:58.288Z,72.30
2022-12-05T15:55:27.742Z,72.30
2022-12-05T15:57:57.791Z,72.30
2022-12-05T16:00:25.529Z,72.30
2022-12-05T16:02:56.518Z,72.30
2022-12-05T16:05:26.633Z,72.20
2022-12-05T16:07:54.442Z,72.20
2022-12-05T16:10:27.814Z,72.20
2022-12-05T16:12:57.178Z,72.20
2022-12-05T16:15:26.726Z,72.20
2022-12-05T16:17:57.096Z,72.30
2022-12-05T16:20:29.513Z,72.30
2022-12-05T16:22:59.182Z,72.30
2022-12-05T16:25:28.163Z,72.30
2022-12-05T16:28:00.067Z,72.30
2022-12-05T16:30:27.875Z,72.30
2022-12-05T16:33:05.111Z,72.30
2022-12-05T16:35:35.081Z,72.30
2022-12-05T16:38:14.058Z,72.30
2022-12-05T16:40:50.563Z,72.20
2022-12-05T16:43:21.089Z,72.40
2022-12-05T16:45:48.907Z,72.40
2022-12-05T16:48:22.864Z,72.30
2022-12-05T16:50:52.165Z,72.20
2022-12-05T16:53:29.060Z,72.10
2022-12-05T16:55:57.289Z,72.00
2022-12-05T16:58:26.437Z,72.00
2022-12-05T17:01:00.670Z,71.90
2022-12-05T17:03:34.952Z,71.80
2022-12-05T17:06:03.696Z,71.80
2022-12-05T17:08:31.339Z,71.80
2022-12-05T17:10:59.014Z,71.90
2022-12-05T17:13:26.775Z,71.90
2022-12-05T17:15:54.434Z,71.90
2022-12-05T17:18:26.536Z,71.90
2022-12-05T17:21:00.345Z,72.00
2022-12-05T17:23:28.066Z,72.00
2022-12-05T17:25:56.443Z,71.90
2022-12-05T17:28:24.344Z,71.80
2022-12-05T17:30:52.097Z,71.80
2022-12-05T17:33:20.024Z,71.70
2022-12-05T17:35:47.683Z,71.50
2022-12-05T17:38:16.902Z,71.50
2022-12-05T17:40:44.599Z,71.50
2022-12-05T17:43:12.804Z,71.40
2022-12-05T17:45:40.592Z,71.30
2022-12-05T17:48:10.453Z,71.30
2022-12-05T17:50:38.585Z,71.30
2022-12-05T17:55:55.590Z,71.50
2022-12-05T17:58:23.387Z,71.60
2022-12-05T18:00:51.001Z,71.70
2022-12-05T18:03:18.696Z,71.70
2022-12-05T18:05:46.377Z,71.80
2022-12-05T18:08:14.270Z,71.80
2022-12-05T18:10:41.859Z,71.90
2022-12-05T18:13:11.001Z,72.00
2022-12-05T18:15:42.718Z,72.00
2022-12-05T18:18:13.804Z,72.10
2022-12-05T18:20:41.380Z,72.10
2022-12-05T18:23:09.019Z,72.10
2022-12-05T18:25:36.668Z,72.20
2022-12-05T18:28:04.578Z,72.20
2022-12-05T18:30:33.815Z,72.20
2022-12-05T18:33:01.639Z,72.20
2022-12-05T18:35:29.324Z,72.40
2022-12-05T18:37:57.091Z,73.20
2022-12-05T18:40:25.435Z,72.50
2022-12-05T18:42:55.369Z,72.50
2022-12-05T18:45:22.960Z,72.50
2022-12-05T18:47:54.663Z,72.40
2022-12-05T18:50:25.019Z,72.40
2022-12-05T18:52:52.820Z,72.40
2022-12-05T18:55:31.076Z,72.50
2022-12-05T18:58:08.188Z,72.50
2022-12-05T19:00:35.840Z,72.50
2022-12-05T19:03:09.258Z,72.40
2022-12-05T19:05:37.291Z,72.40
2022-12-05T19:08:05.391Z,72.30
2022-12-05T19:10:35.588Z,72.10
2022-12-05T19:13:03.277Z,72.00
2022-12-05T19:15:31.119Z,72.00
2022-12-05T19:17:58.907Z,72.00
2022-12-05T19:20:28.143Z,71.90
2022-12-05T19:23:00.721Z,71.90
2022-12-05T19:25:29.563Z,71.90
2022-12-05T19:27:57.368Z,71.80
2022-12-05T19:30:25.070Z,71.80
2022-12-05T19:32:52.699Z,71.80
2022-12-05T19:35:20.378Z,71.90
2022-12-05T19:37:49.502Z,72.00
2022-12-05T19:40:17.381Z,72.00
2022-12-05T19:42:45.066Z,72.10
2022-12-05T19:45:17.768Z,72.10
2022-12-05T19:47:45.841Z,72.10
2022-12-05T19:50:13.594Z,72.20
2022-12-05T19:52:41.207Z,72.30
2022-12-05T19:55:10.629Z,72.40
2022-12-05T19:57:38.468Z,72.40
2022-12-05T20:00:08.728Z,72.30
2022-12-05T20:02:40.093Z,72.40
2022-12-05T20:05:08.744Z,72.40
2022-12-05T20:07:36.543Z,72.40
2022-12-05T20:10:04.754Z,72.40
2022-12-05T20:12:33.827Z,72.50
2022-12-05T20:15:01.536Z,72.50
2022-12-05T20:17:29.155Z,72.50
2022-12-05T20:19:57.077Z,72.50
2022-12-05T20:22:25.187Z,72.60
2022-12-05T20:24:52.958Z,72.60
2022-12-05T20:27:20.543Z,72.50
2022-12-05T20:29:49.593Z,72.60
2022-12-05T20:32:17.106Z,72.50
2022-12-05T20:34:44.803Z,72.60
2022-12-05T20:37:12.301Z,72.60
2022-12-05T20:39:39.878Z,72.60
2022-12-05T20:42:07.601Z,72.60
2022-12-05T20:44:35.380Z,72.60
2022-12-05T20:47:04.460Z,72.60
2022-12-05T20:49:32.186Z,72.60
2022-12-05T20:51:59.750Z,72.60
2022-12-05T20:54:27.647Z,72.70
2022-12-05T20:56:55.304Z,72.70
2022-12-05T20:59:22.927Z,72.80
2022-12-05T21:01:50.634Z,72.80
2022-12-05T21:04:19.837Z,72.80
2022-12-05T21:06:47.572Z,72.90
2022-12-05T21:09:15.376Z,72.80
2022-12-05T21:11:43.271Z,72.80
2022-12-05T21:14:11.026Z,72.90
2022-12-05T21:16:38.663Z,72.90
2022-12-05T21:19:06.432Z,72.90
2022-12-05T21:21:35.636Z,73.00
2022-12-05T21:24:03.964Z,73.00
2022-12-05T21:26:33.234Z,72.90
2022-12-05T21:29:00.998Z,72.80
2022-12-05T21:31:29.656Z,72.80
2022-12-05T21:33:59.060Z,72.70
2022-12-05T21:36:27.158Z,72.60
2022-12-05T21:38:56.784Z,72.60
2022-12-05T21:41:24.503Z,72.40
2022-12-05T21:43:55.093Z,72.30
2022-12-05T21:46:23.471Z,72.20
2022-12-05T21:48:51.058Z,72.10
2022-12-05T21:51:18.673Z,72.00
2022-12-05T21:53:46.325Z,71.90
2022-12-05T21:56:16.776Z,71.80
2022-12-05T21:58:45.087Z,71.70
2022-12-05T22:01:16.448Z,71.80
2022-12-05T22:03:44.058Z,71.80
2022-12-05T22:06:12.641Z,71.70
2022-12-05T22:08:41.022Z,71.80
2022-12-05T22:11:12.952Z,71.80
2022-12-05T22:13:42.174Z,71.90
2022-12-05T22:16:09.754Z,71.90
2022-12-05T22:18:37.181Z,72.80
2022-12-05T22:21:05.851Z,72.00
2022-12-05T22:23:33.858Z,72.00
2022-12-05T22:26:02.360Z,72.10
2022-12-05T22:28:29.920Z,72.20
2022-12-05T22:31:00.127Z,72.90
2022-12-05T22:33:28.072Z,72.10
2022-12-05T22:35:56.562Z,72.10
2022-12-05T22:38:24.076Z,72.10
2022-12-05T22:40:55.022Z,72.10
2022-12-05T22:43:22.749Z,72.20
2022-12-05T22:45:50.144Z,72.30
2022-12-05T22:48:19.004Z,72.30
2022-12-05T22:50:47.310Z,72.30
2022-12-05T22:53:15.126Z,72.30
2022-12-05T22:55:42.913Z,72.30
2022-12-05T22:58:10.313Z,72.30
2022-12-05T23:00:37.657Z,72.30
2022-12-05T23:03:05.600Z,72.30
2022-12-05T23:05:38.837Z,72.30
2022-12-05T23:08:06.421Z,72.30
2022-12-05T23:10:34.673Z,72.30
2022-12-05T23:13:02.268Z,72.30
2022-12-05T23:15:30.811Z,72.30
2022-12-05T23:18:00.257Z,72.30
2022-12-05T23:20:28.140Z,72.30
2022-12-05T23:22:57.489Z,72.30
2022-12-05T23:25:25.213Z,72.30
2022-12-05T23:27:52.938Z,72.30
2022-12-05T23:30:20.911Z,72.30
2022-12-05T23:32:48.665Z,72.30
2022-12-05T23:35:16.570Z,72.30
2022-12-05T23:37:44.455Z,72.20
2022-12-05T23:40:13.787Z,72.10
2022-12-05T23:42:41.699Z,72.10
2022-12-05T23:45:09.988Z,72.20
2022-12-05T23:47:37.914Z,72.10
2022-12-05T23:50:07.296Z,72.30
2022-12-05T23:52:36.615Z,72.30
2022-12-05T23:55:04.926Z,72.30
2022-12-05T23:57:34.276Z,72.30
